Αναφορές Αεροδρομίων

 

KSJC - San Jose, California, USA
Distance from station: ΒΑ 14km
Ενημερώθηκε: 27/01/2022 08:53
Few Clouds
Few Clouds
 Ανεμος από ΝΑ
Ανεμος: ΝΑ 6 km/h
Θερμοκρασία: 7°C
Σημείο Δρόσου: 3°C
Υγρασία: 76%
Βαρόμετρο: 1021.7 hPa
Clouds: Few Clouds
Visibility: 16 km
Cloud details: Few Clouds 762 m
2022/01/27 06:53 KSJC 270653Z 13003KT 10SM FEW025 07/03 A3017 RMK AO2 SLP217 T00720033
KNUQ - Moffett Nas/Mtn, California, USA
Distance from station: Β 14km
Ενημερώθηκε: 27/01/2022 09:30
Αίθριος
Αίθριος
 Ανεμος από calm
Ανεμος: Απνοια
Θερμοκρασία: 7°C
Σημείο Δρόσου: 5°C
Υγρασία: 87%
Βαρόμετρο: 1022 hPa
Clouds: Αίθριος
Visibility: 16 km
2022/01/27 07:30 KNUQ 270730Z AUTO 00000KT 10SM CLR 07/05 A3018 RMK AO2
 
KPAO - Palo Alto, California, USA
Distance from station: ΒΒΔ 23km
Ενημερώθηκε: 27/01/2022 00:47
NOT Current
Haze, Αίθριος
Haze, Αίθριος
 Ανεμος από varies
Ανεμος: varies 9 km/h
Θερμοκρασία: 16°C
Σημείο Δρόσου: 7°C
Υγρασία: 55%
Βαρόμετρο: 1019.6 hPa
Περίληψη: Haze
Clouds: Αίθριος
Visibility: 16 km
2022/01/26 22:47 KPAO 262247Z VRB05KT 10SM HZ SKC 16/07 A3011
KRHV - San Jose/Reid, California, USA
Distance from station: ΑΒΑ 19km
Ενημερώθηκε: 27/01/2022 07:47
NOT Current
Αίθριος
Αίθριος
 Ανεμος από calm
Ανεμος: Απνοια
Θερμοκρασία: 9°C
Σημείο Δρόσου: 6°C
Υγρασία: 82%
Βαρόμετρο: 1021.7 hPa
Clouds: Αίθριος
Visibility: 16 km
2022/01/27 05:47 KRHV 270547Z 00000KT 10SM SKC 09/06 A3017
 
KOAK - Oakland, California, USA
Distance from station: ΒΒΔ 50km
Ενημερώθηκε: 27/01/2022 08:53
Shallow fog, Few clouds
Shallow fog, Few clouds
 Ανεμος από calm
Ανεμος: Απνοια
Θερμοκρασία: 9°C
Σημείο Δρόσου: 6°C
Υγρασία: 82%
Βαρόμετρο: 1022 hPa
Περίληψη: Shallow Fog
Clouds: Few Clouds
Visibility: 11 km
Cloud details: Few Clouds 91 m
2022/01/27 06:53 KOAK 270653Z 00000KT 7SM MIFG FEW003 09/06 A3018 RMK AO2 SLP218 T00890061 $
KSQL - San Carlos Airpo, California, USA
Distance from station: ΒΔ 34km
Ενημερώθηκε: 27/01/2022 09:35
Αίθριος
Αίθριος
 Ανεμος από calm
Ανεμος: Απνοια
Θερμοκρασία: 8°C
Σημείο Δρόσου: 5°C
Υγρασία: 82%
Βαρόμετρο: 1022.4 hPa
Clouds: Αίθριος
Visibility: 11 km
2022/01/27 07:35 KSQL 270735Z AUTO 00000KT 7SM CLR 08/05 A3019 RMK AO2
 
KSFO - San Francisco, California, USA
Distance from station: ΒΔ 49km
Ενημερώθηκε: 27/01/2022 08:56
Αίθριος
Αίθριος
 Ανεμος από ΝΔ
Ανεμος: ΝΔ 6 km/h
Θερμοκρασία: 9°C
Σημείο Δρόσου: 6°C
Υγρασία: 82%
Βαρόμετρο: 1021.7 hPa
Clouds: Αίθριος
Visibility: 16 km
2022/01/27 06:56 KSFO 270656Z 23003KT 10SM CLR 09/06 A3017 RMK AO2 SLP216 T00940061 $
KE16 - San Martin, California, USA
Distance from station: ΑΝΑ 43km
Ενημερώθηκε: 27/01/2022 09:10
Few Clouds
Few Clouds
 Ανεμος από calm
Ανεμος: Απνοια
Θερμοκρασία: 5°C
Σημείο Δρόσου: 4°C
Υγρασία: 93%
Βαρόμετρο: 1022.7 hPa
Clouds: Few Clouds
Visibility: 16 km
Cloud details: Few Clouds 1402 m
Few Clouds 1524 m
2022/01/27 07:10 KE16 270710Z AUTO 00000KT 10SM FEW046 FEW050 05/04 A3020 RMK AO2
 
KWVI - Watsonville, California, USA
Distance from station: ΝΝΑ 44km
Ενημερώθηκε: 27/01/2022 08:53
Αίθριος
Αίθριος
 Ανεμος από calm
Ανεμος: Απνοια
Θερμοκρασία: 5°C
Σημείο Δρόσου: 2°C
Υγρασία: 81%
Βαρόμετρο: 1022 hPa
Clouds: Αίθριος
Visibility: 16 km
2022/01/27 06:53 KWVI 270653Z AUTO 00000KT 10SM CLR 05/02 A3018 RMK AO2 SLP220 T00500017
KHAF - Half Moon Bay, California, USA
Distance from station: ΔΒΔ 50km
Ενημερώθηκε: 27/01/2022 09:35
Αίθριος
Αίθριος
 Ανεμος από calm
Ανεμος: Απνοια
Θερμοκρασία: 3°C
Σημείο Δρόσου: 3°C
Υγρασία: 100%
Βαρόμετρο: 1022 hPa
Clouds: Αίθριος
Visibility: 14 km
2022/01/27 07:35 KHAF 270735Z AUTO 00000KT 9SM CLR 03/03 A3018 RMK AO2
 
KHWD - Hayward, California, USA
Distance from station: Β 44km
Ενημερώθηκε: 27/01/2022 08:54
Haze, Αίθριος
Haze, Αίθριος
 Ανεμος από ΑΒΑ
Ανεμος: ΑΒΑ 7 km/h
Θερμοκρασία: 10°C
Wind Chill: 9°C
Σημείο Δρόσου: 5°C
Υγρασία: 71%
Βαρόμετρο: 1021.7 hPa
Περίληψη: Haze
Clouds: Αίθριος
Visibility: 13 km
2022/01/27 06:54 KHWD 270654Z AUTO 07004KT 8SM HZ CLR 10/05 A3017 RMK AO2 SLP227 T01000050
KLVK - Livermore, California, USA
Distance from station: ΒΒΑ 51km
Ενημερώθηκε: 27/01/2022 08:53
Mist, Αίθριος
Mist, Αίθριος
 Ανεμος από Α
Ανεμος: Α 7 km/h
Θερμοκρασία: 4°C
Wind Chill: 2°C
Σημείο Δρόσου: 3°C
Υγρασία: 93%
Βαρόμετρο: 1022 hPa
Περίληψη: Mist
Clouds: Αίθριος
Visibility: 10 km
2022/01/27 06:53 KLVK 270653Z AUTO 10004KT 6SM BR CLR 04/03 A3018 RMK AO2 SLP220 T00440028